Time;durP1;ratioP1;P1;durP2;ratioP2;P2;SDS_P1;SDS_P2;PMS_P1;PMS_P2;Temp;Humidity;BMP_temperature;BMP_pressure;BME280_temperature;BME280_humidity;BME280_pressure;Samples;Min_cycle;Max_cycle;Signal;HPM_P1;HPM_P2
2023/05/10 00:01:23;;;;;;;7.78;6.00;;;14.30;99.90;;;;;;5115042;28;20092;-74
2023/05/10 00:03:49;;;;;;;5.68;4.25;;;14.40;99.90;;;;;;5114600;28;20459;-74
2023/05/10 00:06:14;;;;;;;6.20;4.40;;;14.20;99.90;;;;;;5114501;28;20043;-75
2023/05/10 00:08:40;;;;;;;5.90;4.63;;;14.10;99.90;;;;;;5114318;28;20053;-74
2023/05/10 00:11:06;;;;;;;5.57;4.87;;;14.00;99.90;;;;;;5114569;28;20119;-75
2023/05/10 00:13:31;;;;;;;6.97;5.03;;;14.00;99.90;;;;;;5113651;28;20043;-74
2023/05/10 00:15:57;;;;;;;6.05;3.92;;;13.90;99.90;;;;;;5113167;28;20479;-75
2023/05/10 00:18:23;;;;;;;5.77;5.17;;;13.80;99.90;;;;;;5114453;28;20402;-74
2023/05/10 00:20:49;;;;;;;8.50;5.13;;;13.70;99.90;;;;;;5114302;28;20051;-74
2023/05/10 00:23:14;;;;;;;5.73;5.03;;;13.70;99.90;;;;;;5114379;28;20039;-74
2023/05/10 00:25:40;;;;;;;5.93;4.83;;;13.70;99.90;;;;;;5114305;28;20100;-74
2023/05/10 00:28:06;;;;;;;7.33;5.50;;;13.60;99.90;;;;;;5114214;28;20036;-76
2023/05/10 00:30:31;;;;;;;8.27;4.50;;;13.70;99.90;;;;;;5114091;28;20115;-74
2023/05/10 00:32:57;;;;;;;5.93;4.93;;;13.60;99.90;;;;;;5114213;28;20126;-75
2023/05/10 00:35:22;;;;;;;8.07;5.03;;;13.60;99.90;;;;;;5114192;28;20043;-74
2023/05/10 00:37:48;;;;;;;8.38;6.38;;;13.60;99.90;;;;;;5114174;28;20122;-75
2023/05/10 00:40:14;;;;;;;5.33;4.60;;;13.60;99.90;;;;;;5114208;28;20031;-74
2023/05/10 00:42:40;;;;;;;6.47;5.00;;;13.50;99.90;;;;;;5114134;28;20071;-75
2023/05/10 00:45:06;;;;;;;6.00;5.10;;;13.50;99.90;;;;;;5114003;28;20043;-75
2023/05/10 00:47:32;;;;;;;7.25;4.90;;;13.50;99.90;;;;;;5114083;28;20421;-76
2023/05/10 00:50:00;;;;;;;10.15;5.45;;;13.50;99.90;;;;;;5113911;28;20048;-75
2023/05/10 00:52:26;;;;;;;6.68;5.05;;;13.40;99.90;;;;;;5114711;28;20352;-75
2023/05/10 00:54:53;;;;;;;8.70;4.88;;;13.40;99.90;;;;;;5113965;28;20044;-74
2023/05/10 00:57:19;;;;;;;7.68;5.68;;;13.40;99.90;;;;;;5113938;28;20117;-73
2023/05/10 00:59:45;;;;;;;7.28;4.88;;;13.40;99.90;;;;;;5114168;28;20383;-74
2023/05/10 01:02:11;;;;;;;7.43;5.22;;;13.40;99.90;;;;;;5113873;28;20040;-75
2023/05/10 01:04:38;;;;;;;7.57;5.20;;;13.30;99.90;;;;;;5113378;28;20101;-74
2023/05/10 01:07:03;;;;;;;6.13;4.75;;;13.30;99.90;;;;;;5113886;28;20058;-76
2023/05/10 01:09:29;;;;;;;7.07;4.82;;;13.30;99.90;;;;;;5114100;28;20039;-75
2023/05/10 01:11:56;;;;;;;7.45;5.85;;;13.40;99.90;;;;;;5114103;28;20376;-74
2023/05/10 01:14:21;;;;;;;6.85;5.30;;;13.30;99.90;;;;;;5114060;28;20048;-74
2023/05/10 01:16:49;;;;;;;7.13;5.30;;;13.30;99.90;;;;;;5113731;28;20050;-75
2023/05/10 01:19:27;;;;;;;7.57;5.45;;;13.30;99.90;;;;;;5113574;28;20397;-75
2023/05/10 01:22:00;;;;;;;;;;;13.30;99.90;;;;;;5114066;28;20035;-75
2023/05/10 01:24:47;;;;;;;9.13;5.55;;;13.30;99.90;;;;;;5113917;28;20057;-75
2023/05/10 01:27:47;;;;;;;7.60;5.55;;;13.30;99.90;;;;;;5117393;28;20044;-74
2023/05/10 01:30:12;;;;;;;6.05;4.70;;;13.30;99.90;;;;;;5117516;28;20075;-75
2023/05/10 01:33:15;;;;;;;8.77;6.27;;;13.20;99.90;;;;;;5116394;28;20083;-74
2023/05/10 01:36:03;;;;;;;6.43;4.90;;;13.20;99.90;;;;;;5116035;28;20031;-74
2023/05/10 01:38:41;;;;;;;7.68;5.63;;;13.20;99.90;;;;;;5117908;28;20039;-74
2023/05/10 01:41:36;;;;;;;9.05;6.22;;;13.20;99.90;;;;;;5117520;28;20043;-74
2023/05/10 01:44:20;;;;;;;8.68;5.78;;;13.20;99.90;;;;;;5109737;28;20047;-74
2023/05/10 01:46:52;;;;;;;7.85;5.80;;;13.20;99.90;;;;;;5117098;28;20432;-74
2023/05/10 01:49:32;;;;;;;9.23;5.93;;;13.20;99.90;;;;;;5117025;28;20082;-75
2023/05/10 01:52:09;;;;;;;6.97;5.28;;;13.60;99.90;;;;;;5117271;28;20036;-74
2023/05/10 01:54:38;;;;;;;9.93;5.82;;;13.20;99.90;;;;;;5117158;28;20071;-73
2023/05/10 01:57:08;;;;;;;7.40;5.30;;;13.20;99.90;;;;;;5116857;28;20050;-73
2023/05/10 01:59:36;;;;;;;8.68;5.57;;;13.20;99.90;;;;;;5116856;28;20037;-73
2023/05/10 02:02:04;;;;;;;7.97;5.90;;;13.10;99.90;;;;;;5117098;28;20039;-73
2023/05/10 02:04:31;;;;;;;9.60;5.70;;;13.10;99.90;;;;;;5116231;28;20051;-74
2023/05/10 02:06:57;;;;;;;6.18;4.57;;;13.20;99.90;;;;;;5116843;28;20437;-73
2023/05/10 02:09:25;;;;;;;6.70;5.45;;;13.00;99.90;;;;;;5116560;28;20088;-74
2023/05/10 02:11:51;;;;;;;8.60;6.07;;;13.00;99.90;;;;;;5116637;28;20039;-73
2023/05/10 02:14:19;;;;;;;7.03;5.23;;;13.10;99.90;;;;;;5116472;28;20510;-74
2023/05/10 02:16:45;;;;;;;7.13;5.25;;;13.10;99.90;;;;;;5116845;28;20047;-73
2023/05/10 02:19:11;;;;;;;;;;;13.10;99.90;;;;;;5116879;28;20485;-73
2023/05/10 02:21:39;;;;;;;7.93;5.20;;;13.10;99.90;;;;;;5116337;28;20017;-74
2023/05/10 02:24:06;;;;;;;8.13;4.68;;;13.10;99.90;;;;;;5116345;28;20429;-73
2023/05/10 02:26:33;;;;;;;6.63;4.95;;;13.00;99.90;;;;;;5115988;28;20488;-73
2023/05/10 02:29:03;;;;;;;6.95;4.85;;;13.00;99.90;;;;;;5116168;27;20475;-73
2023/05/10 02:31:31;;;;;;;9.50;4.88;;;13.00;99.90;;;;;;5114987;28;20039;-74
2023/05/10 02:33:57;;;;;;;6.53;4.72;;;13.00;99.90;;;;;;5116230;28;20036;-74
2023/05/10 02:36:24;;;;;;;;;;;13.00;99.90;;;;;;5115702;28;20395;-73
2023/05/10 02:38:52;;;;;;;6.47;4.70;;;12.90;99.90;;;;;;5116056;28;19915;-73
2023/05/10 02:41:19;;;;;;;9.88;4.80;;;13.00;99.90;;;;;;5116502;28;20044;-74
2023/05/10 02:43:47;;;;;;;7.45;4.55;;;12.90;99.90;;;;;;5116409;28;20040;-74
2023/05/10 02:46:12;;;;;;;7.68;5.22;;;13.00;99.90;;;;;;5115984;27;20077;-73
2023/05/10 02:48:38;;;;;;;6.30;4.67;;;12.90;99.90;;;;;;5115940;28;20463;-74
2023/05/10 02:51:06;;;;;;;6.32;4.50;;;12.90;99.90;;;;;;5115898;28;20039;-73
2023/05/10 02:53:35;;;;;;;6.50;4.50;;;12.90;99.90;;;;;;5115797;28;20042;-74
2023/05/10 02:56:08;;;;;;;5.90;4.07;;;12.90;99.90;;;;;;5115782;28;20043;-73
2023/05/10 02:58:34;;;;;;;6.32;4.63;;;12.90;99.90;;;;;;5116129;28;20122;-73
2023/05/10 03:01:00;;;;;;;8.20;4.57;;;12.90;99.90;;;;;;5115594;28;20086;-73
2023/05/10 03:03:26;;;;;;;6.93;4.63;;;12.80;99.90;;;;;;5115655;28;20463;-74
2023/05/10 03:05:55;;;;;;;8.35;4.50;;;12.80;99.90;;;;;;5115547;28;20368;-73
2023/05/10 03:08:21;;;;;;;9.10;5.00;;;12.80;99.90;;;;;;5114705;28;20078;-73
2023/05/10 03:11:05;;;;;;;6.83;4.83;;;12.80;99.90;;;;;;5115066;28;20476;-73
2023/05/10 03:13:57;;;;;;;6.35;4.50;;;12.80;99.90;;;;;;5115572;28;20281;-73
2023/05/10 03:16:29;;;;;;;5.20;3.92;;;12.80;99.90;;;;;;5115331;28;20042;-72
2023/05/10 03:19:01;;;;;;;6.63;4.28;;;12.80;99.90;;;;;;5115306;28;20122;-72
2023/05/10 03:21:29;;;;;;;6.97;4.55;;;12.80;99.90;;;;;;5115250;28;20039;-74
2023/05/10 03:24:02;;;;;;;5.85;4.32;;;12.80;99.90;;;;;;5114877;28;20449;-73
2023/05/10 03:26:29;;;;;;;6.55;4.45;;;12.80;99.90;;;;;;5115387;28;20035;-74
2023/05/10 03:28:55;;;;;;;6.18;4.47;;;12.80;99.90;;;;;;5113736;28;20531;-73
2023/05/10 03:31:21;;;;;;;6.47;4.70;;;12.90;99.90;;;;;;5115066;28;20081;-73
2023/05/10 03:33:50;;;;;;;7.00;3.97;;;12.80;99.90;;;;;;5115039;28;20035;-73
2023/05/10 03:36:16;;;;;;;9.57;4.68;;;12.80;99.90;;;;;;5114961;28;20085;-74
2023/05/10 03:38:42;;;;;;;6.63;4.23;;;12.80;99.90;;;;;;5115133;28;20344;-74
2023/05/10 03:41:08;;;;;;;7.18;4.63;;;12.80;99.90;;;;;;5114903;28;20122;-74
2023/05/10 03:43:33;;;;;;;6.95;4.53;;;12.80;99.90;;;;;;5114455;28;20040;-73
2023/05/10 03:46:02;;;;;;;5.67;4.00;;;12.80;99.90;;;;;;5114707;28;20130;-73
2023/05/10 03:48:27;;;;;;;6.78;3.80;;;12.80;99.90;;;;;;5114642;28;20432;-73
2023/05/10 03:50:53;;;;;;;6.40;3.87;;;12.80;99.90;;;;;;5114675;28;20082;-73
2023/05/10 03:53:19;;;;;;;6.35;4.32;;;12.80;99.90;;;;;;5113113;28;20062;-72
2023/05/10 03:55:44;;;;;;;7.22;4.40;;;12.80;99.90;;;;;;5114550;28;20047;-73
2023/05/10 03:58:13;;;;;;;6.03;4.40;;;12.80;99.90;;;;;;5114593;28;20031;-72
2023/05/10 04:00:43;;;;;;;8.02;4.07;;;12.80;99.90;;;;;;5114550;28;20035;-72
2023/05/10 04:03:09;;;;;;;7.68;4.45;;;12.90;99.90;;;;;;5114546;28;20056;-73
2023/05/10 04:05:35;;;;;;;5.83;3.83;;;12.80;99.90;;;;;;5114073;28;20055;-73
2023/05/10 04:08:01;;;;;;;6.03;4.10;;;12.80;99.90;;;;;;5114488;28;20059;-73
2023/05/10 04:10:26;;;;;;;7.28;4.47;;;12.70;99.90;;;;;;5114340;28;20035;-73
2023/05/10 04:12:52;;;;;;;5.87;4.20;;;12.80;99.90;;;;;;5114356;28;20043;-73
2023/05/10 04:15:18;;;;;;;5.90;4.43;;;12.80;99.90;;;;;;5114399;28;20048;-73
2023/05/10 04:17:43;;;;;;;5.38;4.30;;;12.80;99.90;;;;;;5114769;28;20375;-73
2023/05/10 04:20:10;;;;;;;4.93;3.65;;;12.80;99.90;;;;;;5114939;28;20031;-73
2023/05/10 04:22:35;;;;;;;5.78;4.28;;;12.70;99.90;;;;;;5113449;28;20044;-74
2023/05/10 04:25:01;;;;;;;6.17;4.53;;;12.70;99.90;;;;;;5114350;28;20424;-73
2023/05/10 04:27:26;;;;;;;7.18;4.90;;;12.70;99.90;;;;;;5114159;28;20044;-72
2023/05/10 04:29:52;;;;;;;8.88;4.30;;;12.70;99.90;;;;;;5114398;28;20101;-74
2023/05/10 04:32:18;;;;;;;7.03;4.88;;;12.70;99.90;;;;;;5114031;28;20517;-73
2023/05/10 04:34:44;;;;;;;7.03;4.70;;;12.70;99.90;;;;;;5114482;28;20044;-76
2023/05/10 04:37:09;;;;;;;6.25;4.35;;;12.70;99.90;;;;;;5114495;28;20334;-74
2023/05/10 04:39:35;;;;;;;5.87;4.33;;;12.70;99.90;;;;;;5114194;28;20031;-75
2023/05/10 04:42:05;;;;;;;8.80;5.07;;;12.70;99.90;;;;;;5114082;28;20035;-73
2023/05/10 04:44:31;;;;;;;6.93;5.28;;;12.70;99.90;;;;;;5114095;28;20042;-73
2023/05/10 04:46:57;;;;;;;9.57;5.95;;;12.70;99.90;;;;;;5114708;28;20379;-73
2023/05/10 04:49:23;;;;;;;8.45;5.25;;;12.70;99.90;;;;;;5114050;28;20032;-75
2023/05/10 04:51:48;;;;;;;8.07;5.57;;;12.70;99.90;;;;;;5114317;28;20031;-73
2023/05/10 04:54:14;;;;;;;8.05;5.55;;;12.60;99.90;;;;;;5113086;28;20390;-75
2023/05/10 04:56:40;;;;;;;8.65;5.65;;;12.70;99.90;;;;;;5112468;28;20110;-74
2023/05/10 04:59:06;;;;;;;7.10;5.23;;;12.70;99.90;;;;;;5113042;28;20042;-78
2023/05/10 05:01:32;;;;;;;8.10;5.20;;;12.70;99.90;;;;;;5117805;28;20271;-78
2023/05/10 05:03:58;;;;;;;6.87;5.10;;;12.70;99.90;;;;;;5117832;28;20104;-78
2023/05/10 05:06:24;;;;;;;8.52;5.07;;;12.70;99.90;;;;;;5117853;28;20040;-78
2023/05/10 05:08:50;;;;;;;8.63;6.00;;;12.70;99.90;;;;;;5117559;28;20123;-78
2023/05/10 05:11:16;;;;;;;6.53;5.23;;;12.70;99.90;;;;;;5116579;28;20130;-77
2023/05/10 05:13:42;;;;;;;10.17;5.87;;;12.70;99.90;;;;;;5117844;28;20126;-78
2023/05/10 05:16:08;;;;;;;9.57;6.35;;;12.70;99.90;;;;;;5117716;28;20768;-78
2023/05/10 05:18:33;;;;;;;6.90;4.75;;;12.70;99.90;;;;;;5117788;28;20035;-78
2023/05/10 05:20:59;;;;;;;6.82;5.25;;;12.70;99.90;;;;;;5117423;28;20040;-78
2023/05/10 05:23:24;;;;;;;9.48;5.60;;;13.20;99.90;;;;;;5116463;28;20122;-77
2023/05/10 05:25:53;;;;;;;9.20;6.00;;;12.70;99.90;;;;;;5117954;28;20071;-71
2023/05/10 05:28:22;;;;;;;8.88;5.80;;;12.70;99.90;;;;;;5118035;28;20028;-71
2023/05/10 05:30:47;;;;;;;7.90;4.93;;;12.80;99.90;;;;;;5117289;28;20043;-74
2023/05/10 05:33:16;;;;;;;7.77;5.33;;;12.90;99.90;;;;;;5117334;28;20027;-76
2023/05/10 05:35:44;;;;;;;8.40;5.22;;;12.70;99.90;;;;;;5117254;27;20115;-77
2023/05/10 05:38:10;;;;;;;10.50;5.10;;;12.70;99.90;;;;;;5116917;28;20367;-73
2023/05/10 05:40:35;;;;;;;7.17;4.33;;;12.70;99.90;;;;;;5117239;28;20043;-73
2023/05/10 05:43:01;;;;;;;8.05;4.60;;;12.70;99.90;;;;;;5117258;28;20046;-72
2023/05/10 05:45:26;;;;;;;8.30;5.43;;;12.70;99.90;;;;;;5117204;28;20046;-73
2023/05/10 05:47:52;;;;;;;8.47;4.50;;;12.70;99.90;;;;;;5117120;28;20126;-74
2023/05/10 05:50:17;;;;;;;6.57;4.47;;;12.70;99.90;;;;;;5116864;28;20041;-73
2023/05/10 05:52:43;;;;;;;8.07;4.75;;;12.70;99.90;;;;;;5117136;28;20032;-74
2023/05/10 05:55:09;;;;;;;8.88;5.43;;;12.70;99.90;;;;;;5116209;28;20092;-79
2023/05/10 05:57:34;;;;;;;8.82;4.68;;;12.60;99.90;;;;;;5116066;28;20051;-73
2023/05/10 06:00:00;;;;;;;8.98;3.78;;;12.70;99.90;;;;;;5116777;28;20118;-73
2023/05/10 06:02:25;;;;;;;8.50;4.50;;;12.60;99.90;;;;;;5116931;28;20039;-72
2023/05/10 06:04:51;;;;;;;8.15;4.22;;;12.70;99.90;;;;;;5116773;28;20047;-73
2023/05/10 06:07:16;;;;;;;7.47;4.23;;;12.70;99.90;;;;;;5116666;28;20526;-75
2023/05/10 06:09:42;;;;;;;11.43;5.00;;;12.70;99.90;;;;;;5116676;28;20043;-75
2023/05/10 06:12:08;;;;;;;6.63;4.57;;;12.70;99.90;;;;;;5115247;28;20046;-73
2023/05/10 06:14:33;;;;;;;5.60;4.47;;;12.80;99.90;;;;;;5116385;28;20425;-76
2023/05/10 06:16:59;;;;;;;6.73;3.90;;;12.90;99.90;;;;;;5116631;28;20097;-73
2023/05/10 06:19:26;;;;;;;10.13;4.90;;;12.80;99.90;;;;;;5116102;28;20028;-73
2023/05/10 06:21:51;;;;;;;6.03;4.47;;;12.80;99.90;;;;;;5114756;28;20043;-73
2023/05/10 06:24:17;;;;;;;6.60;4.30;;;12.90;99.90;;;;;;5116192;28;20038;-73
2023/05/10 06:26:43;;;;;;;7.35;4.82;;;13.00;99.90;;;;;;5116387;28;20088;-73
2023/05/10 06:29:08;;;;;;;9.13;4.30;;;13.00;99.90;;;;;;5116312;28;20035;-73
2023/05/10 06:31:34;;;;;;;6.93;4.80;;;13.00;99.90;;;;;;5116274;28;20079;-74
2023/05/10 06:33:59;;;;;;;8.20;3.97;;;13.10;99.90;;;;;;5116347;28;20456;-74
2023/05/10 06:36:26;;;;;;;6.43;4.28;;;13.10;99.90;;;;;;5116271;28;20468;-73
2023/05/10 06:38:51;;;;;;;8.07;4.38;;;13.20;99.90;;;;;;5116207;28;20035;-74
2023/05/10 06:41:17;;;;;;;10.05;4.68;;;13.20;99.90;;;;;;5116108;28;20062;-73
2023/05/10 06:43:43;;;;;;;7.70;4.22;;;13.10;99.90;;;;;;5116167;28;20456;-74
2023/05/10 06:46:09;;;;;;;6.15;3.88;;;13.20;99.90;;;;;;5116100;28;20036;-73
2023/05/10 06:48:34;;;;;;;7.83;4.37;;;13.30;99.90;;;;;;5116032;28;20039;-73
2023/05/10 06:51:00;;;;;;;7.20;3.85;;;13.30;99.90;;;;;;5115828;28;20078;-72
2023/05/10 06:53:26;;;;;;;6.17;3.50;;;13.30;99.90;;;;;;5115911;28;20050;-72
2023/05/10 06:55:51;;;;;;;7.07;4.27;;;13.30;99.90;;;;;;5114704;28;20027;-73
2023/05/10 06:58:17;;;;;;;5.88;4.20;;;13.20;99.90;;;;;;5114093;28;20092;-74
2023/05/10 07:00:43;;;;;;;8.85;4.65;;;13.30;99.90;;;;;;5115988;28;20043;-72
2023/05/10 07:03:10;;;;;;;7.47;3.60;;;13.30;99.90;;;;;;5115796;28;20067;-73
2023/05/10 07:05:36;;;;;;;;;;;13.30;99.90;;;;;;5116117;28;20373;-73
2023/05/10 07:08:01;;;;;;;6.47;3.97;;;13.30;99.90;;;;;;5115706;28;19915;-73
2023/05/10 07:10:27;;;;;;;6.32;3.80;;;13.30;99.90;;;;;;5114347;28;20455;-73
2023/05/10 07:12:52;;;;;;;8.20;3.97;;;13.30;99.90;;;;;;5115244;28;20113;-73
2023/05/10 07:15:18;;;;;;;8.00;4.60;;;13.30;99.90;;;;;;5115974;28;20169;-73
2023/05/10 07:17:44;;;;;;;11.05;4.20;;;13.30;99.90;;;;;;5115713;28;20043;-74
2023/05/10 07:20:10;;;;;;;5.80;3.20;;;13.30;99.90;;;;;;5113550;28;20486;-72
2023/05/10 07:22:35;;;;;;;5.83;3.80;;;13.30;99.90;;;;;;5113710;28;20040;-73
2023/05/10 07:25:02;;;;;;;5.43;3.50;;;13.40;99.90;;;;;;5114916;28;20054;-73
2023/05/10 07:27:27;;;;;;;4.75;3.22;;;13.40;99.90;;;;;;5115240;28;20048;-73
2023/05/10 07:29:54;;;;;;;6.37;3.47;;;13.40;99.90;;;;;;5115164;28;20126;-73
2023/05/10 07:32:20;;;;;;;7.70;3.40;;;13.40;99.90;;;;;;5115214;28;20076;-73
2023/05/10 07:34:46;;;;;;;10.00;3.40;;;13.50;99.90;;;;;;5115145;28;20464;-73
2023/05/10 07:37:11;;;;;;;5.50;3.15;;;13.40;99.90;;;;;;5113974;28;20054;-74
2023/05/10 07:39:37;;;;;;;6.88;3.72;;;13.50;99.90;;;;;;5114644;28;20043;-75
2023/05/10 07:42:03;;;;;;;6.47;3.65;;;13.50;99.90;;;;;;5114926;28;20490;-74
2023/05/10 07:44:28;;;;;;;6.63;3.33;;;13.50;99.90;;;;;;5114950;28;20421;-76
2023/05/10 07:46:55;;;;;;;6.13;3.50;;;13.50;99.90;;;;;;5114648;28;20054;-75
2023/05/10 07:49:21;;;;;;;5.20;3.30;;;13.60;99.90;;;;;;5114435;28;20047;-71
2023/05/10 07:51:46;;;;;;;9.63;3.53;;;13.50;99.90;;;;;;5114830;28;20036;-71
2023/05/10 07:54:13;;;;;;;6.05;3.30;;;13.50;99.90;;;;;;5114853;28;20089;-70
2023/05/10 07:56:41;;;;;;;5.95;3.13;;;13.60;99.90;;;;;;5113566;28;20124;-71
2023/05/10 07:59:07;;;;;;;6.97;3.30;;;13.50;99.90;;;;;;5114038;28;20047;-72
2023/05/10 08:01:34;;;;;;;5.73;3.20;;;13.60;99.90;;;;;;5094316;28;20044;-74
2023/05/10 08:04:01;;;;;;;7.18;3.50;;;13.50;99.90;;;;;;5093714;28;20507;-70
2023/05/10 08:06:28;;;;;;;;;;;13.50;99.90;;;;;;5094657;28;20083;-72
2023/05/10 08:08:54;;;;;;;7.15;3.35;;;13.60;99.90;;;;;;5093822;28;20352;-71
2023/05/10 08:11:21;;;;;;;4.80;3.33;;;13.70;99.90;;;;;;5093860;28;20040;-72
2023/05/10 08:13:46;;;;;;;;;;;13.80;99.90;;;;;;5094643;28;20144;-71
2023/05/10 08:16:12;;;;;;;7.32;3.38;;;13.90;99.90;;;;;;5094153;28;19922;-71
2023/05/10 08:18:38;;;;;;;5.43;3.63;;;14.10;99.90;;;;;;5094359;28;20471;-70
2023/05/10 08:21:04;;;;;;;5.90;3.38;;;14.20;99.90;;;;;;5093353;28;20119;-71
2023/05/10 08:23:30;;;;;;;4.50;3.07;;;14.20;99.90;;;;;;5094010;28;20063;-70
2023/05/10 08:25:55;;;;;;;6.90;3.70;;;14.20;99.90;;;;;;5093746;28;20036;-71
2023/05/10 08:28:21;;;;;;;6.13;3.40;;;14.30;99.90;;;;;;5093926;28;20047;-72
2023/05/10 08:30:47;;;;;;;6.10;3.30;;;14.30;99.90;;;;;;5094411;28;20071;-76
2023/05/10 08:33:12;;;;;;;5.30;2.92;;;14.40;99.90;;;;;;5093881;28;20036;-76
2023/05/10 08:35:38;;;;;;;4.95;2.75;;;14.40;99.90;;;;;;5092893;28;20073;-76
2023/05/10 08:38:03;;;;;;;4.33;2.50;;;14.40;99.90;;;;;;5093896;28;20032;-76
2023/05/10 08:40:29;;;;;;;6.20;2.97;;;14.40;99.90;;;;;;5110113;28;20039;-76
2023/05/10 08:43:00;;;;;;;5.13;3.17;;;14.30;99.90;;;;;;5114248;28;20118;-76
2023/05/10 08:45:28;;;;;;;6.78;2.92;;;14.20;99.90;;;;;;5114574;28;20040;-75
2023/05/10 08:47:54;;;;;;;7.80;3.67;;;14.10;99.90;;;;;;5114067;28;20044;-76
2023/05/10 08:50:21;;;;;;;4.93;2.50;;;14.10;99.90;;;;;;5114048;28;20031;-76
2023/05/10 08:52:50;;;;;;;5.88;3.03;;;14.10;99.90;;;;;;5114048;28;20084;-83
2023/05/10 08:55:16;;;;;;;4.70;2.60;;;14.30;99.90;;;;;;5114034;28;20054;-82
2023/05/10 08:57:42;;;;;;;5.10;2.37;;;14.20;99.90;;;;;;5096659;28;20047;-77
2023/05/10 09:00:09;;;;;;;6.93;2.93;;;14.20;99.90;;;;;;5113913;28;20034;-73
2023/05/10 09:02:36;;;;;;;3.33;2.28;;;14.20;99.90;;;;;;5114287;28;20083;-73
2023/05/10 09:05:04;;;;;;;6.53;2.50;;;14.20;99.90;;;;;;5112984;28;20056;-72
2023/05/10 09:07:30;;;;;;;4.45;2.42;;;14.20;99.90;;;;;;5113936;28;20040;-72
2023/05/10 09:09:56;;;;;;;4.67;3.03;;;14.40;99.90;;;;;;5113883;28;20156;-73
2023/05/10 09:12:23;;;;;;;7.60;2.42;;;14.30;99.90;;;;;;5113893;28;20043;-72
2023/05/10 09:14:51;;;;;;;3.90;2.08;;;14.30;99.90;;;;;;5113619;28;20042;-72
2023/05/10 09:17:17;;;;;;;4.82;2.58;;;14.40;99.90;;;;;;5113844;28;20044;-73
2023/05/10 09:19:45;;;;;;;4.10;2.50;;;14.40;99.90;;;;;;5113907;28;20087;-73
2023/05/10 09:22:11;;;;;;;3.55;2.38;;;14.40;99.90;;;;;;5112864;28;20060;-73
2023/05/10 09:24:42;;;;;;;3.23;2.07;;;14.40;99.90;;;;;;5113649;28;20376;-73
2023/05/10 09:27:07;;;;;;;3.40;2.10;;;14.40;99.90;;;;;;5113805;28;20035;-72
2023/05/10 09:29:41;;;;;;;4.23;2.23;;;14.40;99.90;;;;;;5112591;28;20111;-76
2023/05/10 09:32:07;;;;;;;4.07;2.50;;;14.30;99.90;;;;;;5113408;28;20109;-74
2023/05/10 09:34:34;;;;;;;4.57;2.30;;;14.20;99.90;;;;;;5113710;28;20089;-73
2023/05/10 09:37:03;;;;;;;5.97;2.10;;;14.20;99.90;;;;;;5113601;28;20031;-75
2023/05/10 09:39:36;;;;;;;4.35;2.58;;;14.30;99.90;;;;;;5113552;28;20032;-75
2023/05/10 09:42:04;;;;;;;4.53;2.72;;;14.40;99.90;;;;;;5113603;28;20084;-75
2023/05/10 09:44:31;;;;;;;3.38;2.40;;;14.40;99.90;;;;;;5113597;28;20040;-75
2023/05/10 09:46:56;;;;;;;;;;;14.50;99.90;;;;;;5104075;28;20040;-75
2023/05/10 09:49:22;;;;;;;3.80;2.40;;;14.60;99.90;;;;;;5115558;28;19939;-74
2023/05/10 09:52:02;;;;;;;3.93;2.57;;;14.70;99.90;;;;;;5117229;28;20463;-75
2023/05/10 09:54:27;;;;;;;3.92;2.70;;;14.70;99.90;;;;;;5117493;28;20471;-75
2023/05/10 09:56:53;;;;;;;3.13;2.23;;;14.90;99.90;;;;;;5117301;28;20089;-75
2023/05/10 09:59:19;;;;;;;4.63;2.60;;;15.00;99.90;;;;;;5117016;28;20082;-73
2023/05/10 10:01:50;;;;;;;4.17;2.70;;;15.10;99.90;;;;;;5116993;28;20580;-74
2023/05/10 10:04:16;;;;;;;4.50;2.40;;;15.30;99.90;;;;;;5116806;28;20139;-75
2023/05/10 10:06:41;;;;;;;5.13;2.70;;;15.50;99.90;;;;;;5117332;28;20122;-73
2023/05/10 10:09:08;;;;;;;3.65;2.38;;;15.60;99.90;;;;;;5116737;28;20092;-84
2023/05/10 10:11:36;;;;;;;6.43;2.53;;;15.60;99.90;;;;;;5115456;28;20566;-76
2023/05/10 10:14:02;;;;;;;4.85;2.20;;;15.70;99.90;;;;;;5116284;28;20070;-73
2023/05/10 10:16:31;;;;;;;3.70;2.93;;;15.70;99.90;;;;;;5116444;28;20126;-72
2023/05/10 10:18:57;;;;;;;3.75;2.70;;;15.70;99.90;;;;;;5115601;28;20044;-74
2023/05/10 10:21:23;;;;;;;4.70;2.90;;;15.70;99.90;;;;;;5117482;28;20060;-72
2023/05/10 10:23:49;;;;;;;4.82;3.10;;;15.70;99.90;;;;;;5121633;28;20040;-74
2023/05/10 10:26:17;;;;;;;4.97;3.30;;;15.70;99.90;;;;;;5116608;28;20036;-73
2023/05/10 10:29:12;;;;;;;4.60;3.25;;;15.80;99.90;;;;;;5116524;28;20039;-73
2023/05/10 10:31:47;;;;;;;7.32;3.25;;;15.60;99.90;;;;;;5105393;28;20532;-72
2023/05/10 10:34:29;;;;;;;4.25;2.88;;;15.60;99.90;;;;;;5115145;28;20482;-75
2023/05/10 10:36:56;;;;;;;6.20;3.30;;;15.60;99.90;;;;;;5116554;28;20375;-73
2023/05/10 10:39:25;;;;;;;5.85;3.67;;;15.80;99.90;;;;;;5116205;28;20036;-72
2023/05/10 10:41:53;;;;;;;4.60;3.20;;;15.80;99.90;;;;;;5115845;28;20036;-72
2023/05/10 10:44:31;;;;;;;5.40;3.10;;;15.90;99.90;;;;;;5116096;28;20096;-72
2023/05/10 10:47:05;;;;;;;5.68;3.40;;;15.90;99.90;;;;;;5116319;28;20048;-75
2023/05/10 10:49:43;;;;;;;6.32;3.25;;;15.80;99.90;;;;;;5115963;28;20079;-78
2023/05/10 10:52:23;;;;;;;5.65;3.25;;;15.80;99.90;;;;;;5114644;28;20084;-73
2023/05/10 10:55:11;;;;;;;4.47;2.92;;;15.80;99.90;;;;;;5116405;28;20080;-77
2023/05/10 10:57:47;;;;;;;6.13;3.17;;;15.80;99.90;;;;;;5115232;28;20054;-75
2023/05/10 11:00:24;;;;;;;4.78;2.88;;;15.80;99.90;;;;;;5115854;28;20035;-77
2023/05/10 11:02:51;;;;;;;;;;;15.70;99.90;;;;;;5116250;28;20044;-78
2023/05/10 11:05:23;;;;;;;4.78;2.95;;;15.70;99.90;;;;;;5116095;28;20275;-76
2023/05/10 11:07:57;;;;;;;5.63;3.72;;;15.70;99.90;;;;;;5115732;27;20040;-72
2023/05/10 11:10:24;;;;;;;6.60;3.65;;;15.50;99.90;;;;;;5115602;28;20040;-72
2023/05/10 11:12:54;;;;;;;4.43;3.05;;;15.50;99.90;;;;;;5115154;28;20348;-72
2023/05/10 11:15:35;;;;;;;5.95;3.45;;;15.40;99.90;;;;;;5115573;28;20458;-72
2023/05/10 11:18:37;;;;;;;4.70;3.45;;;15.50;99.90;;;;;;5115507;28;20046;-72
2023/05/10 11:21:04;;;;;;;7.40;3.90;;;15.50;99.90;;;;;;5032766;28;20048;-75
2023/05/10 11:23:32;;;;;;;6.70;3.92;;;15.60;99.90;;;;;;5099325;28;20055;-73
2023/05/10 11:26:00;;;;;;;5.35;3.33;;;15.70;99.90;;;;;;5115333;28;20071;-73
2023/05/10 11:28:26;;;;;;;6.85;4.03;;;15.80;99.90;;;;;;5113434;28;20053;-74
2023/05/10 11:30:52;;;;;;;;;;;15.80;99.90;;;;;;5114361;28;20092;-73
2023/05/10 11:33:19;;;;;;;5.18;3.33;;;16.00;99.90;;;;;;5115165;28;19919;-73
2023/05/10 11:35:46;;;;;;;8.02;3.70;;;16.10;99.90;;;;;;5115165;28;20086;-74
2023/05/10 11:38:12;;;;;;;4.38;3.15;;;16.20;99.90;;;;;;5114874;28;20427;-79
2023/05/10 11:40:39;;;;;;;4.65;3.38;;;16.20;99.90;;;;;;5114900;28;20100;-74
2023/05/10 11:43:05;;;;;;;;;;;16.20;99.90;;;;;;5115755;28;20100;-73
2023/05/10 11:45:35;;;;;;;6.05;3.33;;;16.50;99.90;;;;;;5114928;28;19915;-74
2023/05/10 11:48:01;;;;;;;6.25;3.22;;;16.30;99.90;;;;;;5115141;28;20390;-75
2023/05/10 11:50:27;;;;;;;5.72;3.25;;;16.50;99.90;;;;;;5114687;28;20046;-76
2023/05/10 11:52:58;;;;;;;5.00;3.40;;;16.20;99.90;;;;;;5114742;28;20042;-74
2023/05/10 11:55:24;;;;;;;5.25;3.10;;;16.20;99.90;;;;;;5115343;28;20054;-75
2023/05/10 11:57:54;;;;;;;6.90;3.07;;;16.20;99.90;;;;;;5114761;28;20448;-75
2023/05/10 12:00:20;;;;;;;4.22;2.72;;;16.20;99.90;;;;;;5114955;28;20036;-74
2023/05/10 12:02:46;;;;;;;4.10;2.95;;;16.20;99.90;;;;;;5114638;28;20124;-76
2023/05/10 12:05:12;;;;;;;5.07;2.90;;;16.30;99.90;;;;;;5114668;28;20051;-74
2023/05/10 12:07:37;;;;;;;4.20;2.77;;;16.30;99.90;;;;;;5113347;28;20043;-75
2023/05/10 12:10:10;;;;;;;4.80;2.70;;;16.40;99.90;;;;;;5113022;28;20552;-75
2023/05/10 12:12:50;;;;;;;5.15;3.03;;;16.40;99.90;;;;;;5114549;28;20425;-75
2023/05/10 12:15:21;;;;;;;3.58;2.65;;;16.40;99.90;;;;;;5114554;28;20100;-74
2023/05/10 12:17:48;;;;;;;5.50;3.20;;;16.50;99.90;;;;;;5114425;28;20051;-75
2023/05/10 12:20:15;;;;;;;7.03;3.35;;;16.40;99.90;;;;;;5112690;28;20040;-74
2023/05/10 12:22:43;;;;;;;6.53;3.45;;;16.40;99.90;;;;;;5113082;28;20050;-72
2023/05/10 12:25:10;;;;;;;4.53;3.35;;;16.30;99.90;;;;;;5114167;28;20039;-76
2023/05/10 12:27:35;;;;;;;7.05;3.50;;;16.20;99.90;;;;;;5113766;28;20035;-75
2023/05/10 12:30:02;;;;;;;4.50;2.97;;;16.10;99.90;;;;;;5114048;28;20053;-76
2023/05/10 12:32:41;;;;;;;4.53;3.35;;;16.00;99.90;;;;;;5114068;28;20028;-78
2023/05/10 12:35:07;;;;;;;8.27;3.58;;;16.10;99.90;;;;;;5114156;28;20127;-76
2023/05/10 12:37:35;;;;;;;5.03;3.70;;;15.90;99.90;;;;;;5114096;28;20414;-79
2023/05/10 12:40:02;;;;;;;4.35;3.25;;;15.80;99.90;;;;;;5114075;28;20475;-76
2023/05/10 12:42:28;;;;;;;;;;;15.80;99.90;;;;;;5114294;28;20039;-76
2023/05/10 12:44:57;;;;;;;4.38;3.30;;;15.80;99.90;;;;;;5114001;28;20380;-77
2023/05/10 12:47:22;;;;;;;4.70;3.10;;;15.80;99.90;;;;;;5112727;28;20482;-76
2023/05/10 12:49:48;;;;;;;8.10;3.70;;;15.80;99.90;;;;;;5113938;28;20040;-76
2023/05/10 12:52:13;;;;;;;5.20;3.20;;;15.80;99.90;;;;;;5113980;28;20352;-75
2023/05/10 12:54:39;;;;;;;5.37;3.70;;;15.90;99.90;;;;;;5113766;28;20039;-77